sensor_id;sensor_type;location;lat;lon;timestamp;pressure;altitude;pressure_sealevel;temperature;humidity
47530;BME280;33272;51.922;7.730;2024-01-11T00:02:12;102540.91;;;14.16;59.06
47530;BME280;33272;51.922;7.730;2024-01-11T00:04:41;102541.69;;;14.16;59.04
47530;BME280;33272;51.922;7.730;2024-01-11T00:07:09;102543.63;;;14.16;58.95
47530;BME280;33272;51.922;7.730;2024-01-11T00:09:38;102542.84;;;14.15;58.92
47530;BME280;33272;51.922;7.730;2024-01-11T00:12:05;102541.28;;;14.14;58.86
47530;BME280;33272;51.922;7.730;2024-01-11T00:14:32;102544.81;;;14.15;58.96
47530;BME280;33272;51.922;7.730;2024-01-11T00:16:58;102543.22;;;14.14;59.12
47530;BME280;33272;51.922;7.730;2024-01-11T00:19:25;102540.47;;;14.14;58.90
47530;BME280;33272;51.922;7.730;2024-01-11T00:21:53;102545.16;;;14.13;58.75
47530;BME280;33272;51.922;7.730;2024-01-11T00:24:20;102543.22;;;14.14;58.89
47530;BME280;33272;51.922;7.730;2024-01-11T00:26:46;102550.63;;;14.13;58.85
47530;BME280;33272;51.922;7.730;2024-01-11T00:29:13;102544.34;;;14.13;58.73
47530;BME280;33272;51.922;7.730;2024-01-11T00:31:39;102541.59;;;14.13;58.83
47530;BME280;33272;51.922;7.730;2024-01-11T00:34:06;102540.47;;;14.14;58.71
47530;BME280;33272;51.922;7.730;2024-01-11T00:36:33;102524.03;;;14.14;58.60
47530;BME280;33272;51.922;7.730;2024-01-11T00:39:01;102533.06;;;14.14;58.76
47530;BME280;33272;51.922;7.730;2024-01-11T00:41:27;102532.25;;;14.14;58.78
47530;BME280;33272;51.922;7.730;2024-01-11T00:43:54;102536.94;;;14.13;58.70
47530;BME280;33272;51.922;7.730;2024-01-11T00:46:21;102536.59;;;14.15;58.76
47530;BME280;33272;51.922;7.730;2024-01-11T00:48:47;102537.38;;;14.15;58.61
47530;BME280;33272;51.922;7.730;2024-01-11T00:51:14;102542.06;;;14.15;58.40
47530;BME280;33272;51.922;7.730;2024-01-11T00:53:41;102542.06;;;14.15;58.65
47530;BME280;33272;51.922;7.730;2024-01-11T00:56:16;102541.28;;;14.14;58.41
47530;BME280;33272;51.922;7.730;2024-01-11T00:58:43;102537.38;;;14.15;58.62
47530;BME280;33272;51.922;7.730;2024-01-11T01:01:09;102538.16;;;14.16;58.67
47530;BME280;33272;51.922;7.730;2024-01-11T01:03:36;102530.75;;;14.16;58.70
47530;BME280;33272;51.922;7.730;2024-01-11T01:06:03;102528.00;;;14.16;58.64
47530;BME280;33272;51.922;7.730;2024-01-11T01:08:30;102537.81;;;14.17;58.69
47530;BME280;33272;51.922;7.730;2024-01-11T01:10:56;102526.41;;;14.15;58.47
47530;BME280;33272;51.922;7.730;2024-01-11T01:13:24;102524.47;;;14.16;58.38
47530;BME280;33272;51.922;7.730;2024-01-11T01:15:51;102529.94;;;14.16;58.50
47530;BME280;33272;51.922;7.730;2024-01-11T01:18:17;102528.81;;;14.17;58.59
47530;BME280;33272;51.922;7.730;2024-01-11T01:20:44;102529.94;;;14.16;58.34
47530;BME280;33272;51.922;7.730;2024-01-11T01:23:10;102531.88;;;14.15;58.36
47530;BME280;33272;51.922;7.730;2024-01-11T01:25:37;102534.28;;;14.17;58.24
47530;BME280;33272;51.922;7.730;2024-01-11T01:28:04;102542.84;;;14.15;58.38
47530;BME280;33272;51.922;7.730;2024-01-11T01:30:32;102545.25;;;14.17;58.42
47530;BME280;33272;51.922;7.730;2024-01-11T01:32:58;102542.06;;;14.15;58.26
47530;BME280;33272;51.922;7.730;2024-01-11T01:35:25;102547.19;;;14.16;58.38
47530;BME280;33272;51.922;7.730;2024-01-11T01:37:51;102561.25;;;14.15;58.36
47530;BME280;33272;51.922;7.730;2024-01-11T01:40:18;102565.13;;;14.14;58.50
47530;BME280;33272;51.922;7.730;2024-01-11T01:42:45;102582.00;;;14.16;58.33
47530;BME280;33272;51.922;7.730;2024-01-11T01:45:12;102572.97;;;14.15;58.22
47530;BME280;33272;51.922;7.730;2024-01-11T01:47:40;102574.94;;;14.15;58.32
47530;BME280;33272;51.922;7.730;2024-01-11T01:50:10;102577.69;;;14.15;58.25
47530;BME280;33272;51.922;7.730;2024-01-11T01:52:38;102582.00;;;14.16;58.25
47530;BME280;33272;51.922;7.730;2024-01-11T01:55:06;102580.44;;;14.15;58.35
47530;BME280;33272;51.922;7.730;2024-01-11T01:57:36;102573.34;;;14.14;58.50
47530;BME280;33272;51.922;7.730;2024-01-11T02:00:05;102571.41;;;14.14;58.22
47530;BME280;33272;51.922;7.730;2024-01-11T02:02:33;102577.31;;;14.16;58.25
47530;BME280;33272;51.922;7.730;2024-01-11T02:05:02;102575.72;;;14.15;58.19
47530;BME280;33272;51.922;7.730;2024-01-11T02:07:28;102563.19;;;14.14;58.32
47530;BME280;33272;51.922;7.730;2024-01-11T02:09:55;102559.28;;;14.15;58.13
47530;BME280;33272;51.922;7.730;2024-01-11T02:12:23;102558.94;;;14.17;58.17
47530;BME280;33272;51.922;7.730;2024-01-11T02:14:50;102564.00;;;14.15;58.27
47530;BME280;33272;51.922;7.730;2024-01-11T02:17:17;102561.25;;;14.15;58.11
47530;BME280;33272;51.922;7.730;2024-01-11T02:19:43;102555.78;;;14.15;58.14
47530;BME280;33272;51.922;7.730;2024-01-11T02:22:15;102547.19;;;14.16;57.99
47530;BME280;33272;51.922;7.730;2024-01-11T02:24:46;102539.34;;;14.15;58.09
47530;BME280;33272;51.922;7.730;2024-01-11T02:27:12;102548.31;;;14.15;58.22
47530;BME280;33272;51.922;7.730;2024-01-11T02:29:39;102544.81;;;14.15;58.08
47530;BME280;33272;51.922;7.730;2024-01-11T02:32:05;102543.22;;;14.14;57.91
47530;BME280;33272;51.922;7.730;2024-01-11T02:34:33;102543.22;;;14.14;58.09
47530;BME280;33272;51.922;7.730;2024-01-11T02:37:00;102550.63;;;14.13;57.83
47530;BME280;33272;51.922;7.730;2024-01-11T02:39:27;102558.84;;;14.13;58.05
47530;BME280;33272;51.922;7.730;2024-01-11T02:41:56;102569.47;;;14.15;57.84
47530;BME280;33272;51.922;7.730;2024-01-11T02:44:23;102563.53;;;14.13;58.22
47530;BME280;33272;51.922;7.730;2024-01-11T02:46:50;102567.06;;;14.13;58.11
47530;BME280;33272;51.922;7.730;2024-01-11T02:49:16;102572.88;;;14.12;57.99
47530;BME280;33272;51.922;7.730;2024-01-11T02:51:43;102565.47;;;14.12;58.08
47530;BME280;33272;51.922;7.730;2024-01-11T02:54:09;102548.22;;;14.12;58.05
47530;BME280;33272;51.922;7.730;2024-01-11T02:56:36;102549.03;;;14.12;58.01
47530;BME280;33272;51.922;7.730;2024-01-11T02:59:04;102548.22;;;14.12;57.96
47530;BME280;33272;51.922;7.730;2024-01-11T03:01:30;102550.97;;;14.12;58.07
47530;BME280;33272;51.922;7.730;2024-01-11T03:03:57;102548.22;;;14.12;58.08
47530;BME280;33272;51.922;7.730;2024-01-11T03:06:24;102559.19;;;14.12;57.89
47530;BME280;33272;51.922;7.730;2024-01-11T03:08:51;102559.19;;;14.12;57.99
47530;BME280;33272;51.922;7.730;2024-01-11T03:14:52;102549.75;;;14.09;57.81
47530;BME280;33272;51.922;7.730;2024-01-11T03:17:19;102546.63;;;14.11;58.09
47530;BME280;33272;51.922;7.730;2024-01-11T03:19:45;102553.72;;;14.12;58.25
47530;BME280;33272;51.922;7.730;2024-01-11T03:22:12;102555.31;;;14.13;57.76
47530;BME280;33272;51.922;7.730;2024-01-11T03:24:38;102557.25;;;14.12;57.93
47530;BME280;33272;51.922;7.730;2024-01-11T03:27:06;102549.84;;;14.13;57.93
47530;BME280;33272;51.922;7.730;2024-01-11T03:29:32;102559.66;;;14.14;57.83
47530;BME280;33272;51.922;7.730;2024-01-11T03:32:00;102565.94;;;14.14;57.94
47530;BME280;33272;51.922;7.730;2024-01-11T03:34:27;102566.72;;;14.15;57.98
47530;BME280;33272;51.922;7.730;2024-01-11T03:36:53;102577.69;;;14.15;57.91
47530;BME280;33272;51.922;7.730;2024-01-11T03:39:20;102565.13;;;14.14;57.90
47530;BME280;33272;51.922;7.730;2024-01-11T03:41:46;102569.00;;;14.13;57.83
47530;BME280;33272;51.922;7.730;2024-01-11T03:44:13;102564.34;;;14.13;57.91
47530;BME280;33272;51.922;7.730;2024-01-11T03:46:39;102571.75;;;14.13;57.88
47530;BME280;33272;51.922;7.730;2024-01-11T03:49:07;102573.34;;;14.14;57.86
47530;BME280;33272;51.922;7.730;2024-01-11T03:51:34;102568.22;;;14.12;57.92
47530;BME280;33272;51.922;7.730;2024-01-11T03:54:00;102558.06;;;14.13;57.73
47530;BME280;33272;51.922;7.730;2024-01-11T03:56:27;102566.28;;;14.13;57.84
47530;BME280;33272;51.922;7.730;2024-01-11T03:58:53;102576.09;;;14.14;57.76
47530;BME280;33272;51.922;7.730;2024-01-11T04:01:20;102599.16;;;14.13;57.82
47530;BME280;33272;51.922;7.730;2024-01-11T04:03:47;102587.38;;;14.12;57.73
47530;BME280;33272;51.922;7.730;2024-01-11T04:06:20;102586.59;;;14.12;57.54
47530;BME280;33272;51.922;7.730;2024-01-11T04:08:47;102592.88;;;14.12;57.71
47530;BME280;33272;51.922;7.730;2024-01-11T04:11:14;102587.06;;;14.14;57.71
47530;BME280;33272;51.922;7.730;2024-01-11T04:13:40;102587.38;;;14.12;57.69
47530;BME280;33272;51.922;7.730;2024-01-11T04:16:07;102587.06;;;14.14;57.74
47530;BME280;33272;51.922;7.730;2024-01-11T04:18:34;102592.06;;;14.12;57.72
47530;BME280;33272;51.922;7.730;2024-01-11T04:21:00;102599.94;;;14.13;57.53
47530;BME280;33272;51.922;7.730;2024-01-11T04:23:28;102593.66;;;14.13;57.70
47530;BME280;33272;51.922;7.730;2024-01-11T04:25:54;102587.72;;;14.11;57.75
47530;BME280;33272;51.922;7.730;2024-01-11T04:28:21;102602.22;;;14.11;57.58
47530;BME280;33272;51.922;7.730;2024-01-11T04:30:48;102602.22;;;14.11;57.53
47530;BME280;33272;51.922;7.730;2024-01-11T04:33:14;102620.28;;;14.12;57.71
47530;BME280;33272;51.922;7.730;2024-01-11T04:35:41;102623.34;;;14.11;57.64
47530;BME280;33272;51.922;7.730;2024-01-11T04:38:07;102624.94;;;14.12;57.79
47530;BME280;33272;51.922;7.730;2024-01-11T04:40:35;102618.66;;;14.11;57.55
47530;BME280;33272;51.922;7.730;2024-01-11T04:43:02;102613.19;;;14.11;57.50
47530;BME280;33272;51.922;7.730;2024-01-11T04:45:30;102609.66;;;14.11;57.65
47530;BME280;33272;51.922;7.730;2024-01-11T04:47:56;102614.31;;;14.10;57.63
47530;BME280;33272;51.922;7.730;2024-01-11T04:50:23;102599.81;;;14.10;57.53
47530;BME280;33272;51.922;7.730;2024-01-11T04:52:49;102598.69;;;14.11;57.65
47530;BME280;33272;51.922;7.730;2024-01-11T04:55:16;102604.16;;;14.11;57.43
47530;BME280;33272;51.922;7.730;2024-01-11T04:57:44;102601.44;;;14.11;57.59
47530;BME280;33272;51.922;7.730;2024-01-11T05:00:11;102605.31;;;14.10;57.47
47530;BME280;33272;51.922;7.730;2024-01-11T05:02:38;102618.66;;;14.11;57.55
47530;BME280;33272;51.922;7.730;2024-01-11T05:05:04;102604.16;;;14.11;57.56
47530;BME280;33272;51.922;7.730;2024-01-11T05:07:31;102601.44;;;14.11;57.45
47530;BME280;33272;51.922;7.730;2024-01-11T05:09:59;102608.03;;;14.10;57.25
47530;BME280;33272;51.922;7.730;2024-01-11T05:12:26;102613.53;;;14.10;57.57
47530;BME280;33272;51.922;7.730;2024-01-11T05:14:54;102616.72;;;14.12;57.47
47530;BME280;33272;51.922;7.730;2024-01-11T05:17:20;102605.31;;;14.10;57.53
47530;BME280;33272;51.922;7.730;2024-01-11T05:19:47;102599.81;;;14.10;57.52
47530;BME280;33272;51.922;7.730;2024-01-11T05:22:14;102602.22;;;14.11;57.37
47530;BME280;33272;51.922;7.730;2024-01-11T05:24:41;102594.34;;;14.10;57.50
47530;BME280;33272;51.922;7.730;2024-01-11T05:27:07;102592.41;;;14.10;57.43
47530;BME280;33272;51.922;7.730;2024-01-11T05:29:34;102588.88;;;14.10;57.62
47530;BME280;33272;51.922;7.730;2024-01-11T05:32:02;102586.94;;;14.10;57.50
47530;BME280;33272;51.922;7.730;2024-01-11T05:34:28;102581.44;;;14.10;57.52
47530;BME280;33272;51.922;7.730;2024-01-11T05:36:55;102581.81;;;14.09;57.53
47530;BME280;33272;51.922;7.730;2024-01-11T05:39:21;102578.72;;;14.10;57.46
47530;BME280;33272;51.922;7.730;2024-01-11T05:41:48;102582.63;;;14.09;57.49
47530;BME280;33272;51.922;7.730;2024-01-11T05:44:14;102605.31;;;14.10;57.54
47530;BME280;33272;51.922;7.730;2024-01-11T05:46:41;102624.84;;;14.08;57.38
47530;BME280;33272;51.922;7.730;2024-01-11T05:49:09;102617.06;;;14.10;57.23
47530;BME280;33272;51.922;7.730;2024-01-11T05:51:35;102620.16;;;14.09;57.38
47530;BME280;33272;51.922;7.730;2024-01-11T05:54:02;102628.38;;;14.09;57.42
47530;BME280;33272;51.922;7.730;2024-01-11T05:56:29;102621.31;;;14.08;57.60
47530;BME280;33272;51.922;7.730;2024-01-11T05:58:55;102631.13;;;14.09;57.48
47530;BME280;33272;51.922;7.730;2024-01-11T06:01:22;102629.53;;;14.08;57.28
47530;BME280;33272;51.922;7.730;2024-01-11T06:03:48;102627.59;;;14.08;57.26
47530;BME280;33272;51.922;7.730;2024-01-11T06:06:16;102631.13;;;14.09;57.18
47530;BME280;33272;51.922;7.730;2024-01-11T06:08:44;102630.31;;;14.08;57.29
47530;BME280;33272;51.922;7.730;2024-01-11T06:11:10;102633.88;;;14.09;57.45
47530;BME280;33272;51.922;7.730;2024-01-11T06:13:37;102638.53;;;14.08;57.46
47530;BME280;33272;51.922;7.730;2024-01-11T06:16:06;102636.59;;;14.09;57.40
47530;BME280;33272;51.922;7.730;2024-01-11T06:18:32;102635.91;;;14.12;57.30
47530;BME280;33272;51.922;7.730;2024-01-11T06:20:59;102640.59;;;14.11;57.34
47530;BME280;33272;51.922;7.730;2024-01-11T06:23:27;102650.88;;;14.14;57.23
47530;BME280;33272;51.922;7.730;2024-01-11T06:25:53;102654.41;;;14.15;57.26
47530;BME280;33272;51.922;7.730;2024-01-11T06:28:20;102661.47;;;14.16;57.40
47530;BME280;33272;51.922;7.730;2024-01-11T06:30:46;102667.06;;;14.19;57.15
47530;BME280;33272;51.922;7.730;2024-01-11T06:33:13;102664.75;;;14.21;57.36
47530;BME280;33272;51.922;7.730;2024-01-11T06:35:39;102680.06;;;14.22;57.33
47530;BME280;33272;51.922;7.730;2024-01-11T06:38:06;102673.91;;;14.25;57.06
47530;BME280;33272;51.922;7.730;2024-01-11T06:40:34;102666.94;;;14.28;57.11
47530;BME280;33272;51.922;7.730;2024-01-11T06:43:00;102661.44;;;14.28;57.16
47530;BME280;33272;51.922;7.730;2024-01-11T06:45:27;102664.66;;;14.30;57.17
47530;BME280;33272;51.922;7.730;2024-01-11T06:47:53;102658.47;;;14.33;57.15
47530;BME280;33272;51.922;7.730;2024-01-11T06:50:20;102654.59;;;14.34;57.18
47530;BME280;33272;51.922;7.730;2024-01-11T06:52:46;102637.81;;;14.35;57.05
47530;BME280;33272;51.922;7.730;2024-01-11T06:55:13;102645.72;;;14.37;57.22
47530;BME280;33272;51.922;7.730;2024-01-11T06:57:41;102646.16;;;14.39;57.23
47530;BME280;33272;51.922;7.730;2024-01-11T07:00:08;102650.50;;;14.40;57.12
47530;BME280;33272;51.922;7.730;2024-01-11T07:02:35;102651.28;;;14.41;57.07
47530;BME280;33272;51.922;7.730;2024-01-11T07:05:02;102651.75;;;14.43;57.04
47530;BME280;33272;51.922;7.730;2024-01-11T07:07:28;102639.66;;;14.44;57.06
47530;BME280;33272;51.922;7.730;2024-01-11T07:09:55;102647.50;;;14.45;57.06
47530;BME280;33272;51.922;7.730;2024-01-11T07:12:21;102640.47;;;14.44;57.11
47530;BME280;33272;51.922;7.730;2024-01-11T07:14:49;102641.69;;;14.47;57.13
47530;BME280;33272;51.922;7.730;2024-01-11T07:17:16;102641.34;;;14.48;56.99
47530;BME280;33272;51.922;7.730;2024-01-11T07:19:42;102625.69;;;14.49;56.94
47530;BME280;33272;51.922;7.730;2024-01-11T07:22:09;102629.25;;;14.49;57.03
47530;BME280;33272;51.922;7.730;2024-01-11T07:24:35;102625.69;;;14.49;56.90
47530;BME280;33272;51.922;7.730;2024-01-11T07:27:03;102621.44;;;14.51;56.97
47530;BME280;33272;51.922;7.730;2024-01-11T07:29:29;102628.88;;;14.51;56.94
47530;BME280;33272;51.922;7.730;2024-01-11T07:31:57;102613.22;;;14.51;56.90
47530;BME280;33272;51.922;7.730;2024-01-11T07:34:24;102627.72;;;14.52;56.82
47530;BME280;33272;51.922;7.730;2024-01-11T07:36:51;102635.63;;;14.53;56.85
47530;BME280;33272;51.922;7.730;2024-01-11T07:39:18;102638.69;;;14.52;56.77
47530;BME280;33272;51.922;7.730;2024-01-11T07:41:45;102642.25;;;14.52;56.71
47530;BME280;33272;51.922;7.730;2024-01-11T07:44:11;102633.22;;;14.52;56.97
47530;BME280;33272;51.922;7.730;2024-01-11T07:46:38;102640.31;;;14.53;56.84
47530;BME280;33272;51.922;7.730;2024-01-11T07:49:06;102657.56;;;14.53;56.84
47530;BME280;33272;51.922;7.730;2024-01-11T07:51:33;102661.09;;;14.54;56.79
47530;BME280;33272;51.922;7.730;2024-01-11T07:54:00;102661.91;;;14.54;56.68
47530;BME280;33272;51.922;7.730;2024-01-11T07:56:26;102659.16;;;14.54;56.72
47530;BME280;33272;51.922;7.730;2024-01-11T07:58:53;102671.72;;;14.55;56.80
47530;BME280;33272;51.922;7.730;2024-01-11T08:01:19;102681.91;;;14.55;56.82
47530;BME280;33272;51.922;7.730;2024-01-11T08:03:46;102682.69;;;14.55;56.73
47530;BME280;33272;51.922;7.730;2024-01-11T08:06:13;102685.88;;;14.57;56.92
47530;BME280;33272;51.922;7.730;2024-01-11T08:08:40;102687.38;;;14.55;56.86
47530;BME280;33272;51.922;7.730;2024-01-11T08:11:07;102692.84;;;14.55;56.69
47530;BME280;33272;51.922;7.730;2024-01-11T08:13:33;102687.38;;;14.55;56.59
47530;BME280;33272;51.922;7.730;2024-01-11T08:16:00;102689.31;;;14.54;56.61
47530;BME280;33272;51.922;7.730;2024-01-11T08:18:28;102691.25;;;14.54;56.66
47530;BME280;33272;51.922;7.730;2024-01-11T08:20:55;102690.00;;;14.51;56.66
47530;BME280;33272;51.922;7.730;2024-01-11T08:23:23;102687.25;;;14.51;56.64
47530;BME280;33272;51.922;7.730;2024-01-11T08:25:49;102684.06;;;14.49;56.68
47530;BME280;33272;51.922;7.730;2024-01-11T08:28:18;102693.44;;;14.48;56.58
47530;BME280;33272;51.922;7.730;2024-01-11T08:30:45;102697.31;;;14.47;56.72
47530;BME280;33272;51.922;7.730;2024-01-11T08:33:12;102705.09;;;14.45;56.74
47530;BME280;33272;51.922;7.730;2024-01-11T08:35:39;102703.50;;;14.44;56.67
47530;BME280;33272;51.922;7.730;2024-01-11T08:38:06;102697.56;;;14.42;56.73
47530;BME280;33272;51.922;7.730;2024-01-11T08:40:34;102698.69;;;14.41;56.74
47530;BME280;33272;51.922;7.730;2024-01-11T08:43:01;102693.91;;;14.38;56.73
47530;BME280;33272;51.922;7.730;2024-01-11T08:45:28;102701.66;;;14.36;56.72
47530;BME280;33272;51.922;7.730;2024-01-11T08:47:56;102699.72;;;14.36;56.67
47530;BME280;33272;51.922;7.730;2024-01-11T08:50:22;102697.63;;;14.33;56.67
47530;BME280;33272;51.922;7.730;2024-01-11T08:52:49;102700.75;;;14.32;56.93
47530;BME280;33272;51.922;7.730;2024-01-11T08:55:15;102706.56;;;14.30;56.89
47530;BME280;33272;51.922;7.730;2024-01-11T08:57:43;102714.47;;;14.32;56.68
47530;BME280;33272;51.922;7.730;2024-01-11T09:00:11;102711.72;;;14.32;56.84
47530;BME280;33272;51.922;7.730;2024-01-11T09:02:42;102729.28;;;14.31;56.86
47530;BME280;33272;51.922;7.730;2024-01-11T09:05:09;102730.44;;;14.30;56.87
47530;BME280;33272;51.922;7.730;2024-01-11T09:07:35;102728.50;;;14.30;56.96
47530;BME280;33272;51.922;7.730;2024-01-11T09:10:02;102730.44;;;14.30;56.76
47530;BME280;33272;51.922;7.730;2024-01-11T09:12:29;102735.13;;;14.29;56.74
47530;BME280;33272;51.922;7.730;2024-01-11T09:14:57;102729.28;;;14.31;56.69
47530;BME280;33272;51.922;7.730;2024-01-11T09:17:23;102721.06;;;14.31;57.08
47530;BME280;33272;51.922;7.730;2024-01-11T09:19:50;102737.53;;;14.31;56.73
47530;BME280;33272;51.922;7.730;2024-01-11T09:22:17;102743.00;;;14.31;56.81
47530;BME280;33272;51.922;7.730;2024-01-11T09:24:43;102745.41;;;14.32;56.75
47530;BME280;33272;51.922;7.730;2024-01-11T09:27:10;102757.13;;;14.33;56.87
47530;BME280;33272;51.922;7.730;2024-01-11T09:29:42;102757.13;;;14.33;56.58
47530;BME280;33272;51.922;7.730;2024-01-11T09:32:10;102758.41;;;14.35;56.63
47530;BME280;33272;51.922;7.730;2024-01-11T09:34:36;102750.53;;;14.34;56.83
47530;BME280;33272;51.922;7.730;2024-01-11T09:37:03;102735.69;;;14.35;56.79
47530;BME280;33272;51.922;7.730;2024-01-11T09:39:30;102745.19;;;14.37;56.79
47530;BME280;33272;51.922;7.730;2024-01-11T09:41:58;102738.91;;;14.37;56.69
47530;BME280;33272;51.922;7.730;2024-01-11T09:44:25;102742.09;;;14.39;56.79
47530;BME280;33272;51.922;7.730;2024-01-11T09:46:53;102750.31;;;14.39;56.75
47530;BME280;33272;51.922;7.730;2024-01-11T09:49:22;102733.88;;;14.39;56.78
47530;BME280;33272;51.922;7.730;2024-01-11T09:51:49;102735.47;;;14.40;56.56
47530;BME280;33272;51.922;7.730;2024-01-11T09:54:18;102729.66;;;14.42;56.42
47530;BME280;33272;51.922;7.730;2024-01-11T09:56:46;102721.44;;;14.42;56.50
47530;BME280;33272;51.922;7.730;2024-01-11T09:59:15;102724.97;;;14.42;56.81
47530;BME280;33272;51.922;7.730;2024-01-11T10:01:44;102730.47;;;14.42;56.66
47530;BME280;33272;51.922;7.730;2024-01-11T10:04:12;102721.09;;;14.43;56.90
47530;BME280;33272;51.922;7.730;2024-01-11T10:06:41;102726.56;;;14.43;56.70
47530;BME280;33272;51.922;7.730;2024-01-11T10:09:09;102723.84;;;14.43;56.80
47530;BME280;33272;51.922;7.730;2024-01-11T10:11:37;102730.13;;;14.44;56.74
47530;BME280;33272;51.922;7.730;2024-01-11T10:14:03;102731.69;;;14.45;56.90
47530;BME280;33272;51.922;7.730;2024-01-11T10:16:30;102724.28;;;14.45;56.87
47530;BME280;33272;51.922;7.730;2024-01-11T10:18:57;102726.22;;;14.45;57.06
47530;BME280;33272;51.922;7.730;2024-01-11T10:21:24;102718.78;;;14.45;56.87
47530;BME280;33272;51.922;7.730;2024-01-11T10:23:52;102724.72;;;14.47;56.97
47530;BME280;33272;51.922;7.730;2024-01-11T10:26:18;102732.97;;;14.47;57.08
47530;BME280;33272;51.922;7.730;2024-01-11T10:28:46;102733.75;;;14.48;57.09
47530;BME280;33272;51.922;7.730;2024-01-11T10:31:13;102742.78;;;14.48;57.13
47530;BME280;33272;51.922;7.730;2024-01-11T10:33:41;102741.66;;;14.49;56.96
47530;BME280;33272;51.922;7.730;2024-01-11T10:36:08;102744.25;;;14.58;57.42
47530;BME280;33272;51.922;7.730;2024-01-11T10:38:37;102744.53;;;15.48;56.68
47530;BME280;33272;51.922;7.730;2024-01-11T10:41:06;102746.09;;;15.93;55.83
47530;BME280;33272;51.922;7.730;2024-01-11T10:43:36;102746.34;;;16.35;55.76
47530;BME280;33272;51.922;7.730;2024-01-11T10:48:37;102751.94;;;17.92;52.70
47530;BME280;33272;51.922;7.730;2024-01-11T10:51:08;102741.97;;;19.23;50.29
47530;BME280;33272;51.922;7.730;2024-01-11T10:53:41;102737.56;;;20.40;48.21
47530;BME280;33272;51.922;7.730;2024-01-11T10:59:37;102738.03;;;20.53;48.04
47530;BME280;33272;51.922;7.730;2024-01-11T11:02:05;102735.09;;;19.80;48.69
47530;BME280;33272;51.922;7.730;2024-01-11T11:04:36;102718.94;;;19.08;49.67
47530;BME280;33272;51.922;7.730;2024-01-11T11:07:04;102718.50;;;18.46;50.29
47530;BME280;33272;51.922;7.730;2024-01-11T11:09:34;102721.22;;;17.94;51.07
47530;BME280;33272;51.922;7.730;2024-01-11T11:12:00;102729.09;;;17.50;51.72
47530;BME280;33272;51.922;7.730;2024-01-11T11:14:29;102722.47;;;17.12;51.86
47530;BME280;33272;51.922;7.730;2024-01-11T11:16:59;102723.44;;;16.81;52.04
47530;BME280;33272;51.922;7.730;2024-01-11T11:19:26;102726.78;;;16.56;52.58
47530;BME280;33272;51.922;7.730;2024-01-11T11:21:52;102721.25;;;16.36;52.73
47530;BME280;33272;51.922;7.730;2024-01-11T11:24:19;102723.94;;;16.17;52.71
47530;BME280;33272;51.922;7.730;2024-01-11T11:26:46;102714.47;;;15.99;52.72
47530;BME280;33272;51.922;7.730;2024-01-11T11:29:14;102729.09;;;15.87;52.82
47530;BME280;33272;51.922;7.730;2024-01-11T11:31:43;102722.53;;;15.76;53.22
47530;BME280;33272;51.922;7.730;2024-01-11T11:34:12;102727.75;;;15.66;53.14
47530;BME280;33272;51.922;7.730;2024-01-11T11:36:40;102733.41;;;15.57;53.08
47530;BME280;33272;51.922;7.730;2024-01-11T11:39:10;102730.44;;;15.50;53.13
47530;BME280;33272;51.922;7.730;2024-01-11T11:41:37;102718.47;;;15.42;53.03
47530;BME280;33272;51.922;7.730;2024-01-11T11:44:05;102719.88;;;15.36;53.23
47530;BME280;33272;51.922;7.730;2024-01-11T11:46:32;102718.53;;;15.30;53.04
47530;BME280;33272;51.922;7.730;2024-01-11T11:48:59;102718.34;;;15.23;53.33
47530;BME280;33272;51.922;7.730;2024-01-11T11:51:27;102718.69;;;15.21;53.22
47530;BME280;33272;51.922;7.730;2024-01-11T11:53:54;102725.22;;;15.17;53.23
47530;BME280;33272;51.922;7.730;2024-01-11T11:56:21;102718.84;;;15.13;53.35
47530;BME280;33272;51.922;7.730;2024-01-11T11:58:49;102712.09;;;15.10;53.41
47530;BME280;33272;51.922;7.730;2024-01-11T12:01:17;102713.94;;;15.06;53.42
47530;BME280;33272;51.922;7.730;2024-01-11T12:03:45;102715.44;;;15.04;53.13
47530;BME280;33272;51.922;7.730;2024-01-11T12:06:15;102718.44;;;14.99;53.16
47530;BME280;33272;51.922;7.730;2024-01-11T12:08:44;102711.34;;;14.98;53.43
47530;BME280;33272;51.922;7.730;2024-01-11T12:11:13;102704.97;;;14.94;53.38
47530;BME280;33272;51.922;7.730;2024-01-11T12:13:40;102697.44;;;14.91;53.33
47530;BME280;33272;51.922;7.730;2024-01-11T12:16:07;102707.16;;;14.88;53.37
47530;BME280;33272;51.922;7.730;2024-01-11T12:18:33;102704.75;;;14.87;53.27
47530;BME280;33272;51.922;7.730;2024-01-11T12:21:00;102701.56;;;14.85;53.38
47530;BME280;33272;51.922;7.730;2024-01-11T12:23:27;102704.66;;;14.83;53.48
47530;BME280;33272;51.922;7.730;2024-01-11T12:25:56;102703.84;;;14.83;53.44
47530;BME280;33272;51.922;7.730;2024-01-11T12:28:23;102705.72;;;14.78;53.39
47530;BME280;33272;51.922;7.730;2024-01-11T12:30:49;102708.00;;;14.76;53.52
47530;BME280;33272;51.922;7.730;2024-01-11T12:33:17;102701.72;;;14.76;53.38
47530;BME280;33272;51.922;7.730;2024-01-11T12:35:44;102705.59;;;14.75;53.62
47530;BME280;33272;51.922;7.730;2024-01-11T12:38:10;102696.13;;;14.72;53.62
47530;BME280;33272;51.922;7.730;2024-01-11T12:40:37;102702.41;;;14.73;53.43
47530;BME280;33272;51.922;7.730;2024-01-11T12:43:07;102705.16;;;14.73;53.33
47530;BME280;33272;51.922;7.730;2024-01-11T12:45:34;102706.63;;;14.70;53.70
47530;BME280;33272;51.922;7.730;2024-01-11T12:48:03;102706.63;;;14.70;53.70
47530;BME280;33272;51.922;7.730;2024-01-11T12:50:30;102693.25;;;14.69;53.62
47530;BME280;33272;51.922;7.730;2024-01-11T12:53:06;102704.59;;;14.67;53.67
47530;BME280;33272;51.922;7.730;2024-01-11T12:55:33;102697.16;;;14.68;53.52
47530;BME280;33272;51.922;7.730;2024-01-11T12:58:04;102692.03;;;14.66;53.65
47530;BME280;33272;51.922;7.730;2024-01-11T13:00:31;102684.59;;;14.67;53.66